sensor_id;sensor_type;location;lat;lon;timestamp;pressure;altitude;pressure_sealevel;temperature;humidity
79589;BME280;69067;51.930;4.492;2023-04-21T00:02:24;101518.25;;;18.20;43.82
79589;BME280;69067;51.930;4.492;2023-04-21T00:04:52;101502.91;;;18.20;43.76
79589;BME280;69067;51.930;4.492;2023-04-21T00:07:18;101502.91;;;18.20;44.91
79589;BME280;69067;51.930;4.492;2023-04-21T00:09:45;101507.31;;;18.21;44.62
79589;BME280;69067;51.930;4.492;2023-04-21T00:12:11;101509.16;;;18.21;44.80
79589;BME280;69067;51.930;4.492;2023-04-21T00:14:36;101515.41;;;18.21;45.07
79589;BME280;69067;51.930;4.492;2023-04-21T00:17:04;101523.34;;;18.23;43.91
79589;BME280;69067;51.930;4.492;2023-04-21T00:19:31;101520.78;;;18.21;44.16
79589;BME280;69067;51.930;4.492;2023-04-21T00:21:58;101525.34;;;18.21;43.91
79589;BME280;69067;51.930;4.492;2023-04-21T00:24:26;101530.72;;;18.21;43.70
79589;BME280;69067;51.930;4.492;2023-04-21T00:26:51;101534.13;;;18.23;43.83
79589;BME280;69067;51.930;4.492;2023-04-21T00:29:17;101533.28;;;18.22;44.79
79589;BME280;69067;51.930;4.492;2023-04-21T00:31:43;101522.47;;;18.22;45.03
79589;BME280;69067;51.930;4.492;2023-04-21T00:34:09;101524.19;;;18.23;44.44
79589;BME280;69067;51.930;4.492;2023-04-21T00:36:34;101522.34;;;18.24;44.17
79589;BME280;69067;51.930;4.492;2023-04-21T00:39:00;101522.47;;;18.22;45.03
79589;BME280;69067;51.930;4.492;2023-04-21T00:41:27;101504.63;;;18.21;45.40
79589;BME280;69067;51.930;4.492;2023-04-21T00:44:07;101507.00;;;18.24;44.44
79589;BME280;69067;51.930;4.492;2023-04-21T00:46:34;101486.44;;;18.23;44.72
79589;BME280;69067;51.930;4.492;2023-04-21T00:49:04;101491.84;;;18.23;44.49
79589;BME280;69067;51.930;4.492;2023-04-21T00:51:33;101481.91;;;18.24;44.79
79589;BME280;69067;51.930;4.492;2023-04-21T00:54:03;101481.91;;;18.24;45.03
79589;BME280;69067;51.930;4.492;2023-04-21T00:56:33;101476.38;;;18.25;45.05
79589;BME280;69067;51.930;4.492;2023-04-21T00:59:00;101466.56;;;18.24;44.66
79589;BME280;69067;51.930;4.492;2023-04-21T01:01:30;101473.66;;;18.25;44.47
79589;BME280;69067;51.930;4.492;2023-04-21T01:03:58;101481.06;;;18.23;44.75
79589;BME280;69067;51.930;4.492;2023-04-21T01:06:27;101473.81;;;18.24;45.46
79589;BME280;69067;51.930;4.492;2023-04-21T01:08:54;101471.97;;;18.24;45.55
79589;BME280;69067;51.930;4.492;2023-04-21T01:11:20;101474.47;;;18.26;45.23
79589;BME280;69067;51.930;4.492;2023-04-21T01:13:46;101464.88;;;18.23;45.02
79589;BME280;69067;51.930;4.492;2023-04-21T01:16:16;101462.88;;;18.25;45.98
79589;BME280;69067;51.930;4.492;2023-04-21T01:18:43;101471.78;;;18.26;46.04
79589;BME280;69067;51.930;4.492;2023-04-21T01:21:10;101474.31;;;18.27;45.06
79589;BME280;69067;51.930;4.492;2023-04-21T01:23:41;101470.78;;;18.27;46.01
79589;BME280;69067;51.930;4.492;2023-04-21T01:26:08;101471.78;;;18.26;45.43
79589;BME280;69067;51.930;4.492;2023-04-21T01:28:34;101467.09;;;18.28;45.68
79589;BME280;69067;51.930;4.492;2023-04-21T01:31:01;101465.41;;;18.27;45.65
79589;BME280;69067;51.930;4.492;2023-04-21T01:33:27;101467.09;;;18.28;45.98
79589;BME280;69067;51.930;4.492;2023-04-21T01:35:53;101462.69;;;18.27;45.94
79589;BME280;69067;51.930;4.492;2023-04-21T01:38:21;101469.94;;;18.26;46.10
79589;BME280;69067;51.930;4.492;2023-04-21T01:40:51;101467.09;;;18.28;46.15
79589;BME280;69067;51.930;4.492;2023-04-21T01:43:22;101457.31;;;18.27;46.25
79589;BME280;69067;51.930;4.492;2023-04-21T01:45:49;101454.63;;;18.27;45.15
79589;BME280;69067;51.930;4.492;2023-04-21T01:48:15;101452.75;;;18.27;45.29
79589;BME280;69067;51.930;4.492;2023-04-21T01:50:41;101455.47;;;18.27;45.29
79589;BME280;69067;51.930;4.492;2023-04-21T01:53:06;101441.97;;;18.27;46.41
79589;BME280;69067;51.930;4.492;2023-04-21T01:55:32;101440.13;;;18.28;46.17
79589;BME280;69067;51.930;4.492;2023-04-21T01:57:58;101436.59;;;18.27;44.95
79589;BME280;69067;51.930;4.492;2023-04-21T02:00:27;101439.28;;;18.27;45.31
79589;BME280;69067;51.930;4.492;2023-04-21T02:02:52;101423.13;;;18.27;45.67
79589;BME280;69067;51.930;4.492;2023-04-21T02:05:18;101415.19;;;18.26;45.59
79589;BME280;69067;51.930;4.492;2023-04-21T02:07:44;101422.25;;;18.27;45.41
79589;BME280;69067;51.930;4.492;2023-04-21T02:10:11;101421.25;;;18.28;44.67
79589;BME280;69067;51.930;4.492;2023-04-21T02:12:37;101431.03;;;18.29;45.47
79589;BME280;69067;51.930;4.492;2023-04-21T02:15:04;101424.81;;;18.28;45.74
79589;BME280;69067;51.930;4.492;2023-04-21T02:17:30;101416.88;;;18.27;45.97
79589;BME280;69067;51.930;4.492;2023-04-21T02:19:56;101428.50;;;18.27;45.73
79589;BME280;69067;51.930;4.492;2023-04-21T02:22:22;101421.41;;;18.26;44.90
79589;BME280;69067;51.930;4.492;2023-04-21T02:24:48;101414.34;;;18.25;46.19
79589;BME280;69067;51.930;4.492;2023-04-21T02:27:15;101418.72;;;18.26;45.21
79589;BME280;69067;51.930;4.492;2023-04-21T02:29:41;101414.19;;;18.27;45.54
79589;BME280;69067;51.930;4.492;2023-04-21T02:32:07;101407.94;;;18.26;45.06
79589;BME280;69067;51.930;4.492;2023-04-21T02:34:33;101404.25;;;18.27;45.42
79589;BME280;69067;51.930;4.492;2023-04-21T02:36:59;101403.41;;;18.27;45.91
79589;BME280;69067;51.930;4.492;2023-04-21T02:39:25;101409.63;;;18.27;44.88
79589;BME280;69067;51.930;4.492;2023-04-21T02:41:51;101402.53;;;18.26;45.33
79589;BME280;69067;51.930;4.492;2023-04-21T02:44:17;101400.69;;;18.27;45.99
79589;BME280;69067;51.930;4.492;2023-04-21T02:46:42;101415.19;;;18.26;45.22
79589;BME280;69067;51.930;4.492;2023-04-21T02:49:09;101409.97;;;18.24;46.63
79589;BME280;69067;51.930;4.492;2023-04-21T02:51:35;101406.28;;;18.25;46.48
79589;BME280;69067;51.930;4.492;2023-04-21T02:54:02;101400.88;;;18.25;46.32
79589;BME280;69067;51.930;4.492;2023-04-21T02:56:28;101384.88;;;18.24;46.46
79589;BME280;69067;51.930;4.492;2023-04-21T02:58:53;101396.31;;;18.26;45.75
79589;BME280;69067;51.930;4.492;2023-04-21T03:01:19;101394.47;;;18.26;46.10
79589;BME280;69067;51.930;4.492;2023-04-21T03:03:45;101392.59;;;18.27;46.59
79589;BME280;69067;51.930;4.492;2023-04-21T03:06:11;101397.16;;;18.26;46.07
79589;BME280;69067;51.930;4.492;2023-04-21T03:08:36;101387.72;;;18.22;45.61
79589;BME280;69067;51.930;4.492;2023-04-21T03:11:02;101393.78;;;18.24;45.82
79589;BME280;69067;51.930;4.492;2023-04-21T03:13:28;101391.75;;;18.26;47.12
79589;BME280;69067;51.930;4.492;2023-04-21T03:15:54;101385.72;;;18.24;45.77
79589;BME280;69067;51.930;4.492;2023-04-21T03:18:20;101386.38;;;18.26;46.32
79589;BME280;69067;51.930;4.492;2023-04-21T03:20:45;101381.84;;;18.27;45.33
79589;BME280;69067;51.930;4.492;2023-04-21T03:23:11;101374.75;;;18.26;45.88
79589;BME280;69067;51.930;4.492;2023-04-21T03:25:38;101376.28;;;18.28;45.49
79589;BME280;69067;51.930;4.492;2023-04-21T03:28:03;101369.19;;;18.27;46.89
79589;BME280;69067;51.930;4.492;2023-04-21T03:30:29;101363.81;;;18.27;46.08
79589;BME280;69067;51.930;4.492;2023-04-21T03:32:55;101361.25;;;18.26;45.38
79589;BME280;69067;51.930;4.492;2023-04-21T03:35:21;101363.81;;;18.27;46.09
79589;BME280;69067;51.930;4.492;2023-04-21T03:37:47;101357.56;;;18.27;45.88
79589;BME280;69067;51.930;4.492;2023-04-21T03:40:14;101359.41;;;18.26;46.21
79589;BME280;69067;51.930;4.492;2023-04-21T03:42:40;101358.56;;;18.26;46.04
79589;BME280;69067;51.930;4.492;2023-04-21T03:45:08;101358.41;;;18.27;46.32
79589;BME280;69067;51.930;4.492;2023-04-21T03:47:35;101362.97;;;18.27;46.73
79589;BME280;69067;51.930;4.492;2023-04-21T03:50:05;101353.03;;;18.27;45.67
79589;BME280;69067;51.930;4.492;2023-04-21T03:52:31;101352.19;;;18.27;45.78
79589;BME280;69067;51.930;4.492;2023-04-21T03:54:57;101353.03;;;18.27;46.70
79589;BME280;69067;51.930;4.492;2023-04-21T03:57:23;101345.94;;;18.26;46.13
79589;BME280;69067;51.930;4.492;2023-04-21T03:59:49;101342.59;;;18.24;45.89
79589;BME280;69067;51.930;4.492;2023-04-21T04:02:15;101338.03;;;18.25;45.55
79589;BME280;69067;51.930;4.492;2023-04-21T04:04:40;101339.53;;;18.27;45.76
79589;BME280;69067;51.930;4.492;2023-04-21T04:07:06;101333.50;;;18.25;46.49
79589;BME280;69067;51.930;4.492;2023-04-21T04:09:33;101334.50;;;18.24;46.02
79589;BME280;69067;51.930;4.492;2023-04-21T04:11:59;101333.31;;;18.27;45.88
79589;BME280;69067;51.930;4.492;2023-04-21T04:14:27;101342.41;;;18.26;46.63
79589;BME280;69067;51.930;4.492;2023-04-21T04:16:52;101336.19;;;18.25;45.64
79589;BME280;69067;51.930;4.492;2023-04-21T04:19:18;101337.84;;;18.26;46.63
79589;BME280;69067;51.930;4.492;2023-04-21T04:21:44;101343.44;;;18.25;46.51
79589;BME280;69067;51.930;4.492;2023-04-21T04:24:10;101335.16;;;18.26;45.55
79589;BME280;69067;51.930;4.492;2023-04-21T04:26:36;101327.25;;;18.25;46.61
79589;BME280;69067;51.930;4.492;2023-04-21T04:29:04;101334.50;;;18.24;46.64
79589;BME280;69067;51.930;4.492;2023-04-21T04:31:34;101339.03;;;18.24;46.85
79589;BME280;69067;51.930;4.492;2023-04-21T04:34:00;101338.88;;;18.25;46.02
79589;BME280;69067;51.930;4.492;2023-04-21T04:36:26;101334.50;;;18.24;46.82
79589;BME280;69067;51.930;4.492;2023-04-21T04:38:52;101338.03;;;18.25;46.44
79589;BME280;69067;51.930;4.492;2023-04-21T04:41:18;101345.28;;;18.24;46.77
79589;BME280;69067;51.930;4.492;2023-04-21T04:43:45;101340.03;;;18.23;46.84
79589;BME280;69067;51.930;4.492;2023-04-21T04:46:11;101344.44;;;18.24;46.62
79589;BME280;69067;51.930;4.492;2023-04-21T04:48:38;101344.28;;;18.25;46.63
79589;BME280;69067;51.930;4.492;2023-04-21T04:51:04;101345.09;;;18.26;46.92
79589;BME280;69067;51.930;4.492;2023-04-21T04:53:30;101351.34;;;18.26;46.78
79589;BME280;69067;51.930;4.492;2023-04-21T04:55:59;101340.72;;;18.25;46.80
79589;BME280;69067;51.930;4.492;2023-04-21T04:58:25;101343.44;;;18.25;47.12
79589;BME280;69067;51.930;4.492;2023-04-21T05:00:51;101345.94;;;18.26;46.71
79589;BME280;69067;51.930;4.492;2023-04-21T05:03:16;101344.28;;;18.25;46.51
79589;BME280;69067;51.930;4.492;2023-04-21T05:05:42;101354.38;;;18.23;46.29
79589;BME280;69067;51.930;4.492;2023-04-21T05:08:09;101346.28;;;18.23;46.86
79589;BME280;69067;51.930;4.492;2023-04-21T05:10:35;101338.03;;;18.25;47.06
79589;BME280;69067;51.930;4.492;2023-04-21T05:13:01;101350.66;;;18.24;46.62
79589;BME280;69067;51.930;4.492;2023-04-21T05:15:26;101343.59;;;18.23;47.05
79589;BME280;69067;51.930;4.492;2023-04-21T05:17:52;101348.81;;;18.25;45.86
79589;BME280;69067;51.930;4.492;2023-04-21T05:20:18;101347.13;;;18.24;46.94
79589;BME280;69067;51.930;4.492;2023-04-21T05:22:44;101343.59;;;18.23;46.37
79589;BME280;69067;51.930;4.492;2023-04-21T05:25:10;101347.97;;;18.24;45.80
79589;BME280;69067;51.930;4.492;2023-04-21T05:27:40;101348.81;;;18.25;46.35
79589;BME280;69067;51.930;4.492;2023-04-21T05:30:07;101351.66;;;18.23;47.15
79589;BME280;69067;51.930;4.492;2023-04-21T05:32:34;101344.44;;;18.24;46.34
79589;BME280;69067;51.930;4.492;2023-04-21T05:35:00;101343.59;;;18.23;46.24
79589;BME280;69067;51.930;4.492;2023-04-21T05:37:26;101352.53;;;18.24;47.08
79589;BME280;69067;51.930;4.492;2023-04-21T05:39:52;101354.22;;;18.25;47.33
79589;BME280;69067;51.930;4.492;2023-04-21T05:42:17;101350.81;;;18.23;47.27
79589;BME280;69067;51.930;4.492;2023-04-21T05:44:43;101364.16;;;18.24;47.21
79589;BME280;69067;51.930;4.492;2023-04-21T05:47:09;101357.91;;;18.24;46.68
79589;BME280;69067;51.930;4.492;2023-04-21T05:49:35;101361.59;;;18.23;46.41
79589;BME280;69067;51.930;4.492;2023-04-21T05:52:00;101357.06;;;18.23;46.63
79589;BME280;69067;51.930;4.492;2023-04-21T05:54:26;101363.44;;;18.22;47.02
79589;BME280;69067;51.930;4.492;2023-04-21T05:56:52;101368.69;;;18.24;47.45
79589;BME280;69067;51.930;4.492;2023-04-21T05:59:18;101370.69;;;18.22;46.42
79589;BME280;69067;51.930;4.492;2023-04-21T06:01:43;101369.69;;;18.23;47.37
79589;BME280;69067;51.930;4.492;2023-04-21T06:04:09;101366.44;;;18.19;46.96
79589;BME280;69067;51.930;4.492;2023-04-21T06:06:35;101376.09;;;18.22;46.95
79589;BME280;69067;51.930;4.492;2023-04-21T06:09:01;101378.78;;;18.22;47.11
79589;BME280;69067;51.930;4.492;2023-04-21T06:11:27;101365.44;;;18.20;46.68
79589;BME280;69067;51.930;4.492;2023-04-21T06:13:52;101368.84;;;18.22;47.36
79589;BME280;69067;51.930;4.492;2023-04-21T06:16:22;101366.16;;;18.22;46.41
79589;BME280;69067;51.930;4.492;2023-04-21T06:18:48;101367.84;;;18.23;46.21
79589;BME280;69067;51.930;4.492;2023-04-21T06:21:14;101369.69;;;18.23;47.32
79589;BME280;69067;51.930;4.492;2023-04-21T06:23:40;101367.84;;;18.23;46.75
79589;BME280;69067;51.930;4.492;2023-04-21T06:26:06;101372.38;;;18.23;47.36
79589;BME280;69067;51.930;4.492;2023-04-21T06:28:36;101373.22;;;18.23;47.26
79589;BME280;69067;51.930;4.492;2023-04-21T06:31:03;101370.53;;;18.23;46.85
79589;BME280;69067;51.930;4.492;2023-04-21T06:33:29;101371.53;;;18.22;47.79
79589;BME280;69067;51.930;4.492;2023-04-21T06:35:55;101364.44;;;18.21;46.80
79589;BME280;69067;51.930;4.492;2023-04-21T06:38:21;101361.75;;;18.21;47.13
79589;BME280;69067;51.930;4.492;2023-04-21T06:40:47;101357.22;;;18.22;46.50
79589;BME280;69067;51.930;4.492;2023-04-21T06:43:13;101359.91;;;18.22;46.59
79589;BME280;69067;51.930;4.492;2023-04-21T06:45:39;101369.84;;;18.21;46.63
79589;BME280;69067;51.930;4.492;2023-04-21T06:48:05;101358.22;;;18.21;47.22
79589;BME280;69067;51.930;4.492;2023-04-21T06:50:30;101365.16;;;18.23;47.61
79589;BME280;69067;51.930;4.492;2023-04-21T06:52:56;101367.16;;;18.21;48.11
79589;BME280;69067;51.930;4.492;2023-04-21T06:55:22;101361.75;;;18.21;47.39
79589;BME280;69067;51.930;4.492;2023-04-21T06:57:48;101355.53;;;18.21;47.52
79589;BME280;69067;51.930;4.492;2023-04-21T07:00:14;101355.53;;;18.21;47.17
79589;BME280;69067;51.930;4.492;2023-04-21T07:02:40;101360.91;;;18.21;46.71
79589;BME280;69067;51.930;4.492;2023-04-21T07:05:06;101357.38;;;18.20;47.43
79589;BME280;69067;51.930;4.492;2023-04-21T07:07:32;101357.38;;;18.20;47.78
79589;BME280;69067;51.930;4.492;2023-04-21T07:09:58;101365.16;;;18.23;47.72
79589;BME280;69067;51.930;4.492;2023-04-21T07:12:24;101364.31;;;18.23;48.72
79589;BME280;69067;51.930;4.492;2023-04-21T07:14:50;101353.66;;;18.21;48.15
79589;BME280;69067;51.930;4.492;2023-04-21T07:17:16;101358.91;;;18.23;47.44
79589;BME280;69067;51.930;4.492;2023-04-21T07:19:42;101356.38;;;18.21;47.77
79589;BME280;69067;51.930;4.492;2023-04-21T07:22:07;101355.38;;;18.22;47.84
79589;BME280;69067;51.930;4.492;2023-04-21T07:24:33;101356.22;;;18.23;48.30
79589;BME280;69067;51.930;4.492;2023-04-21T07:27:00;101358.75;;;18.24;49.90
79589;BME280;69067;51.930;4.492;2023-04-21T07:29:27;101355.38;;;18.22;49.71
79589;BME280;69067;51.930;4.492;2023-04-21T07:31:54;101363.28;;;18.24;49.39
79589;BME280;69067;51.930;4.492;2023-04-21T07:34:20;101351.81;;;18.22;50.63
79589;BME280;69067;51.930;4.492;2023-04-21T07:36:46;101359.75;;;18.23;49.33
79589;BME280;69067;51.930;4.492;2023-04-21T07:39:12;101356.91;;;18.25;49.52
79589;BME280;69067;51.930;4.492;2023-04-21T07:41:38;101364.16;;;18.24;49.29
79589;BME280;69067;51.930;4.492;2023-04-21T07:44:03;101363.44;;;18.22;49.30
79589;BME280;69067;51.930;4.492;2023-04-21T07:46:29;101363.28;;;18.24;48.54
79589;BME280;69067;51.930;4.492;2023-04-21T07:48:59;101363.28;;;18.24;48.53
79589;BME280;69067;51.930;4.492;2023-04-21T07:51:26;101366.84;;;18.24;48.08
79589;BME280;69067;51.930;4.492;2023-04-21T07:53:52;101373.09;;;18.25;48.99
79589;BME280;69067;51.930;4.492;2023-04-21T07:56:18;101373.94;;;18.25;48.57
79589;BME280;69067;51.930;4.492;2023-04-21T07:58:44;101371.22;;;18.25;48.36
79589;BME280;69067;51.930;4.492;2023-04-21T08:01:09;101371.22;;;18.25;48.25
79589;BME280;69067;51.930;4.492;2023-04-21T08:03:36;101371.38;;;18.24;47.88
79589;BME280;69067;51.930;4.492;2023-04-21T08:06:02;101362.28;;;18.25;48.13
79589;BME280;69067;51.930;4.492;2023-04-21T08:08:27;101365.00;;;18.25;47.88
79589;BME280;69067;51.930;4.492;2023-04-21T08:10:53;101360.44;;;18.25;47.73
79589;BME280;69067;51.930;4.492;2023-04-21T08:13:19;101351.81;;;18.22;47.75
79589;BME280;69067;51.930;4.492;2023-04-21T08:15:53;101358.75;;;18.24;47.14
79589;BME280;69067;51.930;4.492;2023-04-21T08:18:19;101360.44;;;18.25;47.89
79589;BME280;69067;51.930;4.492;2023-04-21T08:20:45;101360.59;;;18.24;48.24
79589;BME280;69067;51.930;4.492;2023-04-21T08:23:13;101362.28;;;18.25;47.62
79589;BME280;69067;51.930;4.492;2023-04-21T08:25:39;101358.56;;;18.26;47.26
79589;BME280;69067;51.930;4.492;2023-04-21T08:28:05;101358.56;;;18.26;48.20
79589;BME280;69067;51.930;4.492;2023-04-21T08:30:31;101361.44;;;18.24;47.66
79589;BME280;69067;51.930;4.492;2023-04-21T08:32:57;101362.13;;;18.26;47.71
79589;BME280;69067;51.930;4.492;2023-04-21T08:35:23;101350.47;;;18.26;47.21
79589;BME280;69067;51.930;4.492;2023-04-21T08:37:49;101349.66;;;18.25;47.73
79589;BME280;69067;51.930;4.492;2023-04-21T08:40:16;101349.66;;;18.25;47.79
79589;BME280;69067;51.930;4.492;2023-04-21T08:42:44;101347.78;;;18.26;47.54
79589;BME280;69067;51.930;4.492;2023-04-21T08:45:12;101353.19;;;18.26;47.59
79589;BME280;69067;51.930;4.492;2023-04-21T08:47:39;101356.72;;;18.26;48.17
79589;BME280;69067;51.930;4.492;2023-04-21T08:50:11;101353.88;;;18.28;48.04
79589;BME280;69067;51.930;4.492;2023-04-21T08:52:38;101360.13;;;18.28;47.41
79589;BME280;69067;51.930;4.492;2023-04-21T08:55:05;101352.03;;;18.28;47.72
79589;BME280;69067;51.930;4.492;2023-04-21T08:57:32;101347.13;;;18.24;47.52
79589;BME280;69067;51.930;4.492;2023-04-21T08:59:58;101346.97;;;18.25;46.86
79589;BME280;69067;51.930;4.492;2023-04-21T09:02:23;101347.97;;;18.24;47.56
79589;BME280;69067;51.930;4.492;2023-04-21T09:04:50;101351.34;;;18.26;47.35
79589;BME280;69067;51.930;4.492;2023-04-21T09:07:36;101345.28;;;18.24;47.41
79589;BME280;69067;51.930;4.492;2023-04-21T09:10:06;101350.47;;;18.26;47.17
79589;BME280;69067;51.930;4.492;2023-04-21T09:12:32;101347.78;;;18.26;46.97
79589;BME280;69067;51.930;4.492;2023-04-21T09:14:58;101346.13;;;18.25;47.77
79589;BME280;69067;51.930;4.492;2023-04-21T09:17:29;101345.94;;;18.26;47.56
79589;BME280;69067;51.930;4.492;2023-04-21T09:20:27;101348.47;;;18.28;47.32
79589;BME280;69067;51.930;4.492;2023-04-21T09:22:53;101344.09;;;18.27;47.13
79589;BME280;69067;51.930;4.492;2023-04-21T09:25:20;101339.53;;;18.27;47.03
79589;BME280;69067;51.930;4.492;2023-04-21T09:27:46;101347.63;;;18.27;46.86
79589;BME280;69067;51.930;4.492;2023-04-21T09:30:12;101343.94;;;18.28;47.69
79589;BME280;69067;51.930;4.492;2023-04-21T09:32:39;101343.44;;;18.25;47.20
79589;BME280;69067;51.930;4.492;2023-04-21T09:35:10;101347.63;;;18.27;47.37
79589;BME280;69067;51.930;4.492;2023-04-21T09:37:37;101352.03;;;18.28;47.34
79589;BME280;69067;51.930;4.492;2023-04-21T09:40:04;101351.03;;;18.29;47.05
79589;BME280;69067;51.930;4.492;2023-04-21T09:42:32;101347.47;;;18.29;47.87
79589;BME280;69067;51.930;4.492;2023-04-21T09:44:58;101340.25;;;18.29;47.20
79589;BME280;69067;51.930;4.492;2023-04-21T09:47:28;101336.69;;;18.29;47.31
79589;BME280;69067;51.930;4.492;2023-04-21T09:49:57;101341.94;;;18.30;47.72
79589;BME280;69067;51.930;4.492;2023-04-21T09:52:23;101340.09;;;18.31;47.22
79589;BME280;69067;51.930;4.492;2023-04-21T09:54:59;101337.53;;;18.29;46.74
79589;BME280;69067;51.930;4.492;2023-04-21T09:57:30;101329.47;;;18.29;48.05
79589;BME280;69067;51.930;4.492;2023-04-21T10:00:05;101328.47;;;18.30;47.23
79589;BME280;69067;51.930;4.492;2023-04-21T10:02:42;101334.00;;;18.29;46.94
79589;BME280;69067;51.930;4.492;2023-04-21T10:05:09;101333.84;;;18.30;46.42
79589;BME280;69067;51.930;4.492;2023-04-21T10:07:36;101335.69;;;18.30;46.71
79589;BME280;69067;51.930;4.492;2023-04-21T10:10:03;101330.16;;;18.31;46.89
79589;BME280;69067;51.930;4.492;2023-04-21T10:12:32;101332.66;;;18.33;47.21
79589;BME280;69067;51.930;4.492;2023-04-21T10:15:03;101326.44;;;18.32;47.75
79589;BME280;69067;51.930;4.492;2023-04-21T10:17:33;101319.38;;;18.31;47.52
79589;BME280;69067;51.930;4.492;2023-04-21T10:20:05;101319.19;;;18.33;47.40
79589;BME280;69067;51.930;4.492;2023-04-21T10:22:34;101316.47;;;18.33;46.67
79589;BME280;69067;51.930;4.492;2023-04-21T10:25:04;101316.34;;;18.34;46.64
79589;BME280;69067;51.930;4.492;2023-04-21T10:27:36;101305.69;;;18.33;46.43
79589;BME280;69067;51.930;4.492;2023-04-21T10:30:18;101298.47;;;18.33;46.85
79589;BME280;69067;51.930;4.492;2023-04-21T10:32:44;101298.47;;;18.33;46.76
79589;BME280;69067;51.930;4.492;2023-04-21T10:35:13;101297.47;;;18.34;47.19
79589;BME280;69067;51.930;4.492;2023-04-21T10:37:41;101289.38;;;18.34;47.14
79589;BME280;69067;51.930;4.492;2023-04-21T10:40:34;101297.47;;;18.34;47.26
79589;BME280;69067;51.930;4.492;2023-04-21T10:43:04;101280.28;;;18.35;46.59
79589;BME280;69067;51.930;4.492;2023-04-21T10:45:30;101285.66;;;18.35;46.87
79589;BME280;69067;51.930;4.492;2023-04-21T10:47:59;101274.88;;;18.35;46.02
79589;BME280;69067;51.930;4.492;2023-04-21T10:50:30;101280.28;;;18.35;47.39
79589;BME280;69067;51.930;4.492;2023-04-21T10:53:10;101266.81;;;18.35;47.04
79589;BME280;69067;51.930;4.492;2023-04-21T10:55:37;101276.44;;;18.38;47.04
79589;BME280;69067;51.930;4.492;2023-04-21T10:58:06;101277.44;;;18.37;47.21
79589;BME280;69067;51.930;4.492;2023-04-21T11:00:34;101267.50;;;18.37;46.71
79589;BME280;69067;51.930;4.492;2023-04-21T11:03:05;101258.41;;;18.38;46.91
79589;BME280;69067;51.930;4.492;2023-04-21T11:05:37;101261.09;;;18.38;46.35
79589;BME280;69067;51.930;4.492;2023-04-21T11:08:13;101267.34;;;18.39;46.68
79589;BME280;69067;51.930;4.492;2023-04-21T11:10:52;101260.06;;;18.39;46.96
79589;BME280;69067;51.930;4.492;2023-04-21T11:13:24;101263.78;;;18.38;46.59
79589;BME280;69067;51.930;4.492;2023-04-21T11:16:06;101256.38;;;18.40;46.97
79589;BME280;69067;51.930;4.492;2023-04-21T11:18:41;101253.66;;;18.40;48.73
79589;BME280;69067;51.930;4.492;2023-04-21T11:21:14;101250.81;;;18.42;49.74
79589;BME280;69067;51.930;4.492;2023-04-21T11:23:56;101251.50;;;18.44;51.11
79589;BME280;69067;51.930;4.492;2023-04-21T11:26:30;101243.56;;;18.42;51.66
79589;BME280;69067;51.930;4.492;2023-04-21T11:29:02;101234.47;;;18.43;51.35
79589;BME280;69067;51.930;4.492;2023-04-21T11:31:30;101229.78;;;18.45;50.86
79589;BME280;69067;51.930;4.492;2023-04-21T11:33:58;101233.31;;;18.46;52.62
79589;BME280;69067;51.930;4.492;2023-04-21T11:36:24;101221.50;;;18.47;51.93
79589;BME280;69067;51.930;4.492;2023-04-21T11:38:52;101227.41;;;18.50;53.17
79589;BME280;69067;51.930;4.492;2023-04-21T11:41:22;101221.34;;;18.48;53.16
79589;BME280;69067;51.930;4.492;2023-04-21T11:43:49;101219.31;;;18.50;53.22
79589;BME280;69067;51.930;4.492;2023-04-21T11:48:57;101213.78;;;18.52;51.97
79589;BME280;69067;51.930;4.492;2023-04-21T11:51:38;101216.28;;;18.54;51.87
79589;BME280;69067;51.930;4.492;2023-04-21T11:54:12;101210.88;;;18.54;51.86
79589;BME280;69067;51.930;4.492;2023-04-21T11:56:41;101209.88;;;18.55;50.32
79589;BME280;69067;51.930;4.492;2023-04-21T11:59:08;101200.81;;;18.56;50.60
79589;BME280;69067;51.930;4.492;2023-04-21T12:02:01;101200.81;;;18.56;50.05
79589;BME280;69067;51.930;4.492;2023-04-21T12:04:28;101203.34;;;18.57;50.11
79589;BME280;69067;51.930;4.492;2023-04-21T12:06:57;101194.41;;;18.57;50.82
79589;BME280;69067;51.930;4.492;2023-04-21T12:09:25;101181.78;;;18.57;51.15
79589;BME280;69067;51.930;4.492;2023-04-21T12:11:54;101188.88;;;18.58;51.18
79589;BME280;69067;51.930;4.492;2023-04-21T12:14:23;101185.16;;;18.59;50.57
79589;BME280;69067;51.930;4.492;2023-04-21T12:16:56;101180.63;;;18.60;51.17
79589;BME280;69067;51.930;4.492;2023-04-21T12:19:34;101190.38;;;18.61;50.89
79589;BME280;69067;51.930;4.492;2023-04-21T12:22:09;101172.34;;;18.61;50.89
79589;BME280;69067;51.930;4.492;2023-04-21T12:24:37;101175.03;;;18.61;50.32
79589;BME280;69067;51.930;4.492;2023-04-21T12:27:03;101171.31;;;18.62;51.04
79589;BME280;69067;51.930;4.492;2023-04-21T12:29:30;101173.88;;;18.64;51.15
79589;BME280;69067;51.930;4.492;2023-04-21T12:31:56;101170.47;;;18.62;50.38
79589;BME280;69067;51.930;4.492;2023-04-21T12:34:22;101160.38;;;18.64;49.60
79589;BME280;69067;51.930;4.492;2023-04-21T12:36:48;101161.22;;;18.64;50.29
79589;BME280;69067;51.930;4.492;2023-04-21T12:39:14;101158.69;;;18.63;50.37
79589;BME280;69067;51.930;4.492;2023-04-21T12:41:41;101153.97;;;18.65;50.56
79589;BME280;69067;51.930;4.492;2023-04-21T12:44:07;101153.97;;;18.65;49.38
79589;BME280;69067;51.930;4.492;2023-04-21T12:46:33;101149.44;;;18.65;50.07
79589;BME280;69067;51.930;4.492;2023-04-21T12:48:59;101148.41;;;18.66;50.21
79589;BME280;69067;51.930;4.492;2023-04-21T12:51:25;101147.56;;;18.66;50.00
79589;BME280;69067;51.930;4.492;2023-04-21T12:53:51;101150.09;;;18.67;50.54
79589;BME280;69067;51.930;4.492;2023-04-21T12:56:17;101147.56;;;18.66;50.02